Time;durP1;ratioP1;P1;durP2;ratioP2;P2;SDS_P1;SDS_P2;PMS_P1;PMS_P2;Temp;Humidity;BMP_temperature;BMP_pressure;BME280_temperature;BME280_humidity;BME280_pressure;Samples;Min_cycle;Max_cycle;Signal;HPM_P1;HPM_P2
2023/08/17 00:01:55;;;;;;;3.57;3.27;;;26.70;63.80;;;;;;5035492;28;20406;-73
2023/08/17 00:04:21;;;;;;;3.27;2.97;;;26.70;63.70;;;;;;5036573;28;20410;-72
2023/08/17 00:06:47;;;;;;;3.40;3.10;;;26.70;63.70;;;;;;5036705;28;20582;-73
2023/08/17 00:09:13;;;;;;;4.17;3.77;;;26.70;63.70;;;;;;5036781;28;20468;-72
2023/08/17 00:11:39;;;;;;;3.27;2.97;;;26.70;63.70;;;;;;5037148;28;20217;-72
2023/08/17 00:14:05;;;;;;;3.87;3.30;;;26.80;63.80;;;;;;5037112;28;20282;-72
2023/08/17 00:16:33;;;;;;;4.10;3.70;;;26.70;63.70;;;;;;5037116;28;20172;-73
2023/08/17 00:18:58;;;;;;;3.50;3.20;;;26.70;63.70;;;;;;5036997;28;20959;-73
2023/08/17 00:21:24;;;;;;;4.20;3.47;;;26.70;63.70;;;;;;5035582;28;20532;-72
2023/08/17 00:23:52;;;;;;;2.83;2.53;;;26.70;63.70;;;;;;5036433;28;20262;-72
2023/08/17 00:26:18;;;;;;;3.50;3.20;;;26.70;63.80;;;;;;5036690;28;20287;-72
2023/08/17 00:28:44;;;;;;;5.23;3.70;;;26.70;63.80;;;;;;5035904;28;20449;-72
2023/08/17 00:31:12;;;;;;;4.13;3.63;;;26.70;63.70;;;;;;5035422;28;20215;-73
2023/08/17 00:33:38;;;;;;;3.53;3.23;;;26.70;64.60;;;;;;5017664;28;20203;-72
2023/08/17 00:36:04;;;;;;;4.10;3.63;;;26.70;63.80;;;;;;5035356;28;20418;-72
2023/08/17 00:38:29;;;;;;;3.60;3.30;;;26.70;63.70;;;;;;5035327;28;20172;-72
2023/08/17 00:40:55;;;;;;;3.53;3.23;;;26.70;63.70;;;;;;5036320;28;20223;-73
2023/08/17 00:43:21;;;;;;;3.50;3.20;;;26.70;63.70;;;;;;5036916;28;20183;-73
2023/08/17 00:45:47;;;;;;;3.27;3.00;;;26.70;63.80;;;;;;5036106;28;20174;-73
2023/08/17 00:48:13;;;;;;;3.60;3.30;;;26.70;63.80;;;;;;5035238;28;20259;-73
2023/08/17 00:50:40;;;;;;;3.50;3.20;;;26.70;63.80;;;;;;5034995;28;20432;-72
2023/08/17 00:53:06;;;;;;;4.20;3.37;;;26.70;63.80;;;;;;5035170;28;20183;-72
2023/08/17 00:55:33;;;;;;;2.80;2.60;;;26.70;63.70;;;;;;5034964;28;20410;-72
2023/08/17 00:57:59;;;;;;;3.70;3.40;;;26.70;63.80;;;;;;5034939;28;20410;-72
2023/08/17 01:00:28;;;;;;;3.90;3.50;;;26.70;63.80;;;;;;5034814;28;20425;-73
2023/08/17 01:02:54;;;;;;;4.10;3.10;;;26.70;63.70;;;;;;5034843;28;20176;-72
2023/08/17 01:05:20;;;;;;;3.33;3.03;;;26.70;63.80;;;;;;5034724;28;20421;-73
2023/08/17 01:07:46;;;;;;;3.83;3.40;;;26.70;63.80;;;;;;5034659;28;20407;-72
2023/08/17 01:10:12;;;;;;;3.70;3.40;;;26.70;63.70;;;;;;5034581;28;20430;-73
2023/08/17 01:12:58;;;;;;;3.47;3.17;;;26.70;63.70;;;;;;5034046;28;20637;-72
2023/08/17 01:15:34;;;;;;;4.30;3.90;;;26.70;63.80;;;;;;5016882;28;20218;-72
2023/08/17 01:18:23;;;;;;;3.90;3.50;;;26.70;63.80;;;;;;5034609;28;20394;-72
2023/08/17 01:20:50;;;;;;;3.53;3.10;;;26.80;63.80;;;;;;5034604;28;20434;-72
2023/08/17 01:23:15;;;;;;;3.30;3.00;;;26.70;63.80;;;;;;5034639;28;20775;-73
2023/08/17 01:25:41;;;;;;;4.07;3.67;;;26.70;63.80;;;;;;5034341;28;20411;-72
2023/08/17 01:28:07;;;;;;;3.90;3.60;;;26.70;63.80;;;;;;5034353;28;20171;-72
2023/08/17 01:30:41;;;;;;;3.27;2.97;;;26.70;63.80;;;;;;5034097;28;20551;-73
2023/08/17 01:33:12;;;;;;;4.03;3.10;;;26.80;63.80;;;;;;5034151;28;20285;-72
2023/08/17 01:35:45;;;;;;;3.47;3.17;;;26.70;64.60;;;;;;5034549;28;20414;-73
2023/08/17 01:38:14;;;;;;;2.73;2.53;;;26.70;63.80;;;;;;5034340;28;20403;-73
2023/08/17 01:40:41;;;;;;;3.60;3.30;;;26.70;63.70;;;;;;5016185;28;20449;-73
2023/08/17 01:43:08;;;;;;;3.17;2.90;;;26.70;63.70;;;;;;5034110;28;20477;-72
2023/08/17 01:45:35;;;;;;;3.47;3.17;;;26.70;63.70;;;;;;5034092;28;20410;-74
2023/08/17 01:48:00;;;;;;;3.20;2.90;;;26.70;63.60;;;;;;5016313;28;20940;-73
2023/08/17 01:50:26;;;;;;;4.00;3.50;;;26.80;63.70;;;;;;5033910;28;20426;-73
2023/08/17 01:52:51;;;;;;;3.00;2.80;;;26.70;63.70;;;;;;5033966;28;20168;-73
2023/08/17 01:55:17;;;;;;;3.60;3.17;;;26.70;63.60;;;;;;5033783;28;20669;-73
2023/08/17 01:57:43;;;;;;;2.70;2.50;;;26.70;63.60;;;;;;5033862;28;20215;-73
2023/08/17 02:00:10;;;;;;;3.13;2.80;;;26.70;63.60;;;;;;5033735;28;20191;-73
2023/08/17 02:02:36;;;;;;;3.20;2.87;;;26.70;63.60;;;;;;5033976;28;20183;-73
2023/08/17 02:05:02;;;;;;;2.83;2.50;;;26.70;63.60;;;;;;5033762;28;20509;-72
2023/08/17 02:07:28;;;;;;;3.20;2.90;;;26.70;63.60;;;;;;5033738;28;20198;-73
2023/08/17 02:09:54;;;;;;;3.50;3.20;;;26.70;63.60;;;;;;5033578;28;20269;-72
2023/08/17 02:12:19;;;;;;;3.07;2.77;;;26.70;63.60;;;;;;5033589;28;20410;-73
2023/08/17 02:14:45;;;;;;;3.53;3.20;;;26.70;63.60;;;;;;5033439;28;20747;-72
2023/08/17 02:17:10;;;;;;;4.60;3.50;;;26.70;63.50;;;;;;5015743;28;20176;-73
2023/08/17 02:19:36;;;;;;;3.47;3.17;;;26.70;63.50;;;;;;5033297;28;20179;-73
2023/08/17 02:22:03;;;;;;;3.10;2.80;;;26.70;63.50;;;;;;5033416;28;20168;-73
2023/08/17 02:24:28;;;;;;;3.50;3.20;;;26.70;63.50;;;;;;5032454;28;20167;-73
2023/08/17 02:26:54;;;;;;;3.53;3.23;;;26.70;63.60;;;;;;5033386;28;20826;-73
2023/08/17 02:29:19;;;;;;;3.00;2.80;;;26.70;63.50;;;;;;5033169;28;20191;-73
2023/08/17 02:31:45;;;;;;;3.13;2.77;;;26.70;63.50;;;;;;5015477;28;20212;-73
2023/08/17 02:34:11;;;;;;;3.17;2.87;;;26.70;63.60;;;;;;5015586;28;20218;-73
2023/08/17 02:36:36;;;;;;;3.30;3.00;;;26.70;63.60;;;;;;5033108;28;20172;-73
2023/08/17 02:39:03;;;;;;;3.17;2.57;;;26.80;63.70;;;;;;5015339;28;20658;-73
2023/08/17 02:41:30;;;;;;;3.63;3.33;;;26.70;63.50;;;;;;5033219;28;20656;-73
2023/08/17 02:43:56;;;;;;;3.23;2.93;;;26.70;63.50;;;;;;5032969;28;20862;-73
2023/08/17 02:46:21;;;;;;;2.93;2.73;;;26.70;63.60;;;;;;5015093;28;20517;-73
2023/08/17 02:48:47;;;;;;;3.40;3.10;;;26.70;63.50;;;;;;5033195;28;20214;-73
2023/08/17 02:51:13;;;;;;;3.23;2.93;;;26.70;63.50;;;;;;5032722;28;20203;-73
2023/08/17 02:53:40;;;;;;;3.40;3.10;;;26.70;63.50;;;;;;5032777;28;20461;-73
2023/08/17 02:56:06;;;;;;;2.97;2.70;;;26.70;63.50;;;;;;5032569;28;20410;-73
2023/08/17 02:58:32;;;;;;;3.17;2.87;;;26.70;63.50;;;;;;5032651;28;20417;-73
2023/08/17 03:00:57;;;;;;;2.97;2.50;;;26.70;63.50;;;;;;5032562;28;20192;-73
2023/08/17 03:03:23;;;;;;;3.20;2.90;;;26.70;63.60;;;;;;5032569;28;20547;-73
2023/08/17 03:05:48;;;;;;;3.30;3.00;;;26.70;63.50;;;;;;5032582;28;20192;-73
2023/08/17 03:08:14;;;;;;;3.40;3.10;;;26.70;63.50;;;;;;5032520;28;20344;-71
2023/08/17 03:10:40;;;;;;;2.90;2.70;;;26.70;63.50;;;;;;5032368;28;20666;-72
2023/08/17 03:13:05;;;;;;;4.30;2.70;;;26.70;63.50;;;;;;5032356;28;20179;-73
2023/08/17 03:15:31;;;;;;;3.40;2.73;;;26.70;63.50;;;;;;5032435;28;20172;-73
2023/08/17 03:17:56;;;;;;;3.20;2.90;;;26.70;63.60;;;;;;5032665;28;20175;-73
2023/08/17 03:20:22;;;;;;;2.60;2.40;;;26.70;63.50;;;;;;5014579;28;20665;-73
2023/08/17 03:22:47;;;;;;;2.67;2.47;;;26.70;63.50;;;;;;5014586;28;20184;-73
2023/08/17 03:25:13;;;;;;;2.93;2.60;;;26.70;63.50;;;;;;5032301;28;20262;-72
2023/08/17 03:27:38;;;;;;;3.33;3.03;;;26.70;63.50;;;;;;5032273;28;20593;-73
2023/08/17 03:30:05;;;;;;;3.40;3.10;;;26.70;63.50;;;;;;5032030;28;20220;-73
2023/08/17 03:32:31;;;;;;;3.87;3.37;;;26.70;63.50;;;;;;5032211;28;20658;-73
2023/08/17 03:34:56;;;;;;;3.17;2.97;;;26.70;63.50;;;;;;5031897;28;20462;-72
2023/08/17 03:37:22;;;;;;;2.90;2.60;;;26.70;63.50;;;;;;5032035;28;20613;-73
2023/08/17 03:39:47;;;;;;;2.67;2.47;;;26.70;63.50;;;;;;5014219;28;20253;-72
2023/08/17 03:42:13;;;;;;;3.00;2.77;;;26.70;63.50;;;;;;5031946;28;20174;-73
2023/08/17 03:44:39;;;;;;;2.53;2.33;;;26.70;63.50;;;;;;5031967;28;20191;-73
2023/08/17 03:47:04;;;;;;;3.00;2.77;;;26.70;63.50;;;;;;5014181;28;20636;-73
2023/08/17 03:49:30;;;;;;;3.33;3.03;;;26.70;63.50;;;;;;5031918;28;20660;-73
2023/08/17 03:51:55;;;;;;;3.77;2.90;;;26.70;63.50;;;;;;5014268;28;20262;-73
2023/08/17 03:54:21;;;;;;;3.57;2.73;;;26.70;63.50;;;;;;5031889;28;20214;-73
2023/08/17 03:56:47;;;;;;;2.70;2.50;;;26.70;63.50;;;;;;5031838;28;20176;-73
2023/08/17 03:59:13;;;;;;;3.83;3.07;;;26.70;63.50;;;;;;5014478;28;20202;-73
2023/08/17 04:01:39;;;;;;;2.70;2.50;;;26.70;63.50;;;;;;5031832;28;20203;-73
2023/08/17 04:04:04;;;;;;;3.23;2.93;;;26.70;63.50;;;;;;5014110;28;20433;-73
2023/08/17 04:06:30;;;;;;;3.27;3.00;;;26.70;63.50;;;;;;5014141;28;20186;-73
2023/08/17 04:08:56;;;;;;;3.10;2.80;;;26.70;63.50;;;;;;5032068;28;20171;-72
2023/08/17 04:11:21;;;;;;;2.73;2.53;;;26.70;63.50;;;;;;5013979;28;20261;-73
2023/08/17 04:13:47;;;;;;;2.80;2.60;;;26.70;63.50;;;;;;5014027;28;20214;-72
2023/08/17 04:16:12;;;;;;;3.33;3.00;;;26.70;63.50;;;;;;5013954;28;20649;-72
2023/08/17 04:18:38;;;;;;;2.73;2.53;;;26.70;63.50;;;;;;5031615;28;20262;-73
2023/08/17 04:21:04;;;;;;;3.03;2.83;;;26.70;63.50;;;;;;5031615;28;20188;-73
2023/08/17 04:23:29;;;;;;;2.67;2.47;;;26.70;63.50;;;;;;5031691;28;20180;-73
2023/08/17 04:25:55;;;;;;;2.60;2.30;;;26.70;63.50;;;;;;5031913;28;20187;-73
2023/08/17 04:28:21;;;;;;;3.10;2.80;;;26.70;63.50;;;;;;5013930;28;20183;-72
2023/08/17 04:30:46;;;;;;;3.27;2.97;;;26.70;63.50;;;;;;5031538;28;20330;-72
2023/08/17 04:33:12;;;;;;;2.60;2.40;;;26.70;63.50;;;;;;5031451;28;20722;-73
2023/08/17 04:35:38;;;;;;;2.80;2.60;;;26.70;63.50;;;;;;5031565;28;20637;-73
2023/08/17 04:38:04;;;;;;;2.93;2.23;;;26.70;63.50;;;;;;5031473;28;20460;-73
2023/08/17 04:40:30;;;;;;;2.90;2.70;;;26.70;63.50;;;;;;5031758;28;20222;-73
2023/08/17 04:42:56;;;;;;;2.57;2.37;;;26.70;63.50;;;;;;5031403;28;20211;-73
2023/08/17 04:45:21;;;;;;;4.27;2.67;;;26.70;63.50;;;;;;5031477;28;20453;-72
2023/08/17 04:47:47;;;;;;;3.40;3.10;;;26.70;63.50;;;;;;5033550;28;20168;-73
2023/08/17 04:50:16;;;;;;;3.10;2.70;;;26.70;63.50;;;;;;5035064;28;20200;-73
2023/08/17 04:52:44;;;;;;;3.00;2.80;;;26.70;63.50;;;;;;5035056;28;20175;-73
2023/08/17 04:55:10;;;;;;;2.63;2.43;;;26.70;63.50;;;;;;5017120;28;20513;-73
2023/08/17 04:57:36;;;;;;;2.83;2.63;;;26.70;63.50;;;;;;5035015;28;20412;-73
2023/08/17 05:00:03;;;;;;;2.43;2.23;;;26.70;63.50;;;;;;5034858;28;20517;-73
2023/08/17 05:02:28;;;;;;;2.70;2.50;;;26.70;63.50;;;;;;5034792;28;20210;-73
2023/08/17 05:04:54;;;;;;;2.60;2.40;;;26.70;63.50;;;;;;5034846;28;20454;-73
2023/08/17 05:07:19;;;;;;;3.00;2.80;;;26.70;63.50;;;;;;5034750;28;20207;-73
2023/08/17 05:09:45;;;;;;;2.57;2.40;;;26.70;63.50;;;;;;5034669;28;20199;-73
2023/08/17 05:12:11;;;;;;;3.17;2.87;;;26.70;63.50;;;;;;5034984;28;20257;-73
2023/08/17 05:14:36;;;;;;;2.87;2.57;;;26.70;63.50;;;;;;5034558;28;20211;-72
2023/08/17 05:17:02;;;;;;;3.13;2.90;;;26.70;63.50;;;;;;5034951;28;20175;-73
2023/08/17 05:19:27;;;;;;;2.60;2.40;;;26.70;63.50;;;;;;5034486;28;20644;-72
2023/08/17 05:21:53;;;;;;;2.87;2.50;;;26.70;63.60;;;;;;5034545;28;20254;-72
2023/08/17 05:24:20;;;;;;;2.60;2.30;;;26.70;63.60;;;;;;5034491;28;20171;-72
2023/08/17 05:26:45;;;;;;;2.70;2.50;;;26.70;63.60;;;;;;5034385;28;20635;-72
2023/08/17 05:29:11;;;;;;;2.73;2.53;;;26.70;63.60;;;;;;5034156;28;20446;-73
2023/08/17 05:31:37;;;;;;;2.60;2.40;;;26.80;63.70;;;;;;5016447;28;20249;-72
2023/08/17 05:34:02;;;;;;;2.57;2.37;;;26.70;63.60;;;;;;5034159;28;20289;-72
2023/08/17 05:36:28;;;;;;;2.50;2.30;;;26.80;63.70;;;;;;5034198;28;20179;-73
2023/08/17 05:38:53;;;;;;;3.00;2.80;;;26.70;63.60;;;;;;5034185;28;20587;-72
2023/08/17 05:41:19;;;;;;;2.80;2.60;;;26.70;63.60;;;;;;5016488;28;20234;-72
2023/08/17 05:43:45;;;;;;;3.30;2.60;;;26.70;63.60;;;;;;5034082;28;20214;-72
2023/08/17 05:46:10;;;;;;;2.80;2.60;;;26.80;63.60;;;;;;5034016;28;20183;-73
2023/08/17 05:48:36;;;;;;;3.40;2.63;;;26.80;63.60;;;;;;5016282;28;20183;-72
2023/08/17 05:51:02;;;;;;;2.67;2.47;;;26.80;63.60;;;;;;5033890;28;20196;-72
2023/08/17 05:53:27;;;;;;;4.03;3.00;;;26.80;63.60;;;;;;5033849;28;20641;-73
2023/08/17 05:55:53;;;;;;;3.27;2.97;;;26.80;63.60;;;;;;5034111;28;20184;-73
2023/08/17 05:58:18;;;;;;;2.53;2.30;;;26.80;63.60;;;;;;5033799;28;20176;-72
2023/08/17 06:00:44;;;;;;;3.30;2.70;;;26.80;63.60;;;;;;5033650;28;20191;-72
2023/08/17 06:03:10;;;;;;;2.53;2.33;;;26.80;63.60;;;;;;5033771;28;20177;-71
2023/08/17 06:05:36;;;;;;;2.40;2.20;;;26.80;63.50;;;;;;5033563;28;20210;-73
2023/08/17 06:08:01;;;;;;;2.70;2.50;;;26.80;63.50;;;;;;5033544;28;20446;-72
2023/08/17 06:10:27;;;;;;;2.47;2.27;;;26.80;63.50;;;;;;5033563;28;20195;-73
2023/08/17 06:12:53;;;;;;;2.43;2.23;;;26.80;63.50;;;;;;5033522;28;20172;-73
2023/08/17 06:15:19;;;;;;;2.80;2.60;;;26.80;63.50;;;;;;5033371;28;20234;-72
2023/08/17 06:17:45;;;;;;;3.00;2.30;;;26.80;63.50;;;;;;5033489;28;20496;-73
2023/08/17 06:20:11;;;;;;;2.60;2.40;;;26.80;63.50;;;;;;5033397;28;20756;-72
2023/08/17 06:22:37;;;;;;;2.53;2.33;;;26.80;63.50;;;;;;5033267;28;20202;-72
2023/08/17 06:25:04;;;;;;;2.67;2.47;;;26.80;63.50;;;;;;5033148;28;20432;-71
2023/08/17 06:27:30;;;;;;;2.40;2.20;;;26.80;63.50;;;;;;5033181;28;20203;-72
2023/08/17 06:30:06;;;;;;;2.50;2.30;;;26.80;63.50;;;;;;5032433;28;20551;-72
2023/08/17 06:32:32;;;;;;;2.97;2.67;;;26.80;63.50;;;;;;5033554;28;20621;-73
2023/08/17 06:34:57;;;;;;;3.10;2.80;;;26.80;63.50;;;;;;5033074;28;20469;-74
2023/08/17 06:37:23;;;;;;;2.47;2.10;;;26.80;63.50;;;;;;5033603;28;20185;-74
2023/08/17 06:39:48;;;;;;;2.90;2.43;;;26.80;63.60;;;;;;5032975;28;20226;-73
2023/08/17 06:42:14;;;;;;;2.50;2.30;;;26.80;63.50;;;;;;5032923;28;20183;-73
2023/08/17 06:44:40;;;;;;;2.70;2.50;;;26.80;63.50;;;;;;5032872;28;20539;-73
2023/08/17 06:47:05;;;;;;;2.40;2.20;;;26.80;63.50;;;;;;5032820;28;20199;-73
2023/08/17 06:49:31;;;;;;;2.50;2.30;;;26.80;63.50;;;;;;5032926;28;20238;-72
2023/08/17 06:51:56;;;;;;;2.73;2.53;;;26.80;63.50;;;;;;5032710;28;20175;-72
2023/08/17 06:54:22;;;;;;;2.60;2.40;;;26.80;63.50;;;;;;5014916;28;20203;-73
2023/08/17 06:56:49;;;;;;;2.60;2.40;;;26.80;63.50;;;;;;5032691;28;20277;-73
2023/08/17 06:59:14;;;;;;;2.50;2.30;;;26.80;63.50;;;;;;5032667;28;20921;-73
2023/08/17 07:01:40;;;;;;;2.67;2.43;;;26.90;63.60;;;;;;5032509;28;20318;-73
2023/08/17 07:04:06;;;;;;;2.40;2.20;;;26.80;63.40;;;;;;5032532;28;20183;-72
2023/08/17 07:06:31;;;;;;;2.80;2.30;;;26.90;63.60;;;;;;5032622;28;20176;-73
2023/08/17 07:08:57;;;;;;;2.70;2.40;;;26.80;63.70;;;;;;5032476;28;20180;-73
2023/08/17 07:11:22;;;;;;;2.47;2.27;;;26.90;63.60;;;;;;5012950;28;20214;-73
2023/08/17 07:13:48;;;;;;;2.60;2.40;;;26.90;63.60;;;;;;5031498;28;20203;-73
2023/08/17 07:16:14;;;;;;;3.43;2.37;;;26.90;63.60;;;;;;5032250;28;20206;-72
2023/08/17 07:18:40;;;;;;;2.27;2.07;;;26.90;63.60;;;;;;5014627;28;20586;-72
2023/08/17 07:21:05;;;;;;;2.93;2.63;;;26.90;63.60;;;;;;5032271;28;20195;-73
2023/08/17 07:23:31;;;;;;;2.23;2.03;;;26.90;63.60;;;;;;5032290;28;20184;-73
2023/08/17 07:25:57;;;;;;;3.00;2.70;;;26.90;63.60;;;;;;5032206;28;20309;-72
2023/08/17 07:28:22;;;;;;;2.20;2.00;;;26.90;63.60;;;;;;5032106;28;20258;-72
2023/08/17 07:30:48;;;;;;;3.23;2.37;;;26.90;63.50;;;;;;5031821;28;20215;-72
2023/08/17 07:33:14;;;;;;;2.70;2.50;;;26.90;63.50;;;;;;5032037;28;20206;-72
2023/08/17 07:35:39;;;;;;;2.33;2.13;;;26.90;63.60;;;;;;5032022;28;20186;-73
2023/08/17 07:38:07;;;;;;;2.37;2.17;;;26.90;63.60;;;;;;5032033;28;20591;-73
2023/08/17 07:40:33;;;;;;;2.13;1.93;;;26.90;63.60;;;;;;5032004;28;20223;-72
2023/08/17 07:42:59;;;;;;;2.73;2.40;;;26.90;63.60;;;;;;5032137;28;20442;-72
2023/08/17 07:45:24;;;;;;;2.23;2.03;;;26.90;63.60;;;;;;5014245;28;20191;-71
2023/08/17 07:47:50;;;;;;;2.33;2.13;;;26.90;63.60;;;;;;5032267;28;20522;-72
2023/08/17 07:50:15;;;;;;;2.47;2.27;;;26.90;63.50;;;;;;5031870;28;20210;-71
2023/08/17 07:52:41;;;;;;;2.30;2.10;;;26.90;63.60;;;;;;5031850;28;20179;-72
2023/08/17 07:55:07;;;;;;;2.70;2.50;;;26.90;63.60;;;;;;5014250;28;20265;-71
2023/08/17 07:57:32;;;;;;;2.47;2.27;;;26.90;63.50;;;;;;5031852;28;20168;-72
2023/08/17 07:59:58;;;;;;;2.40;2.20;;;26.90;63.50;;;;;;5031616;28;20563;-72
2023/08/17 08:02:23;;;;;;;2.40;2.20;;;26.90;63.50;;;;;;5031795;28;20432;-72
2023/08/17 08:04:49;;;;;;;2.70;2.50;;;26.90;63.50;;;;;;5031831;28;20180;-72
2023/08/17 08:07:14;;;;;;;2.37;2.17;;;26.90;63.50;;;;;;5014393;28;20273;-72
2023/08/17 08:09:40;;;;;;;2.43;2.07;;;26.90;63.50;;;;;;5031725;28;20168;-71
2023/08/17 08:12:07;;;;;;;3.20;2.57;;;26.90;63.50;;;;;;5031733;28;20180;-71
2023/08/17 08:14:34;;;;;;;2.60;2.13;;;26.90;63.60;;;;;;5031622;28;20235;-71
2023/08/17 08:16:59;;;;;;;3.20;2.57;;;26.90;63.50;;;;;;5031724;28;20428;-72
2023/08/17 08:19:25;;;;;;;2.77;2.57;;;26.90;63.50;;;;;;5013766;28;20493;-71
2023/08/17 08:21:51;;;;;;;2.30;2.10;;;26.90;63.50;;;;;;5031675;28;20195;-70
2023/08/17 08:24:16;;;;;;;2.70;2.50;;;26.90;63.50;;;;;;5035629;28;20214;-72
2023/08/17 08:26:42;;;;;;;2.60;2.40;;;26.90;63.50;;;;;;5035552;28;20619;-72
2023/08/17 08:29:07;;;;;;;2.83;2.30;;;26.90;63.50;;;;;;5017626;28;20180;-72
2023/08/17 08:31:33;;;;;;;2.53;2.33;;;26.90;63.50;;;;;;5036551;28;20241;-72
2023/08/17 08:33:59;;;;;;;2.90;2.60;;;26.90;63.50;;;;;;5035937;28;20618;-73
2023/08/17 08:36:25;;;;;;;2.60;2.40;;;26.90;63.50;;;;;;5035428;28;20172;-72
2023/08/17 08:38:51;;;;;;;2.60;2.40;;;26.90;63.50;;;;;;5035320;28;20480;-72
2023/08/17 08:41:17;;;;;;;3.07;2.60;;;26.90;63.50;;;;;;5036037;28;20202;-71
2023/08/17 08:43:42;;;;;;;2.90;2.20;;;26.90;63.50;;;;;;5036215;28;20612;-71
2023/08/17 08:46:09;;;;;;;2.60;2.40;;;26.90;63.50;;;;;;5035484;28;20489;-71
2023/08/17 08:48:38;;;;;;;3.43;2.23;;;26.90;63.50;;;;;;5018310;28;20211;-72
2023/08/17 08:51:07;;;;;;;3.70;2.70;;;26.90;63.50;;;;;;5035456;28;20524;-71
2023/08/17 08:53:39;;;;;;;2.63;2.30;;;26.90;63.50;;;;;;5035614;28;20406;-72
2023/08/17 08:56:10;;;;;;;3.40;2.33;;;26.90;63.50;;;;;;5035723;28;20398;-72
2023/08/17 08:58:36;;;;;;;5.03;2.50;;;27.00;63.70;;;;;;5018339;28;20394;-72
2023/08/17 09:01:02;;;;;;;4.10;2.63;;;26.90;63.50;;;;;;5037118;23;20492;-72
2023/08/17 09:03:30;;;;;;;3.80;2.73;;;26.90;63.50;;;;;;5055672;28;20413;-71
2023/08/17 09:05:57;;;;;;;2.80;2.47;;;26.90;63.50;;;;;;5037269;28;20457;-72
2023/08/17 09:08:27;;;;;;;2.60;2.40;;;27.00;63.60;;;;;;5037286;28;20421;-72
2023/08/17 09:10:53;;;;;;;2.50;2.30;;;27.00;63.60;;;;;;5054729;28;20522;-73
2023/08/17 09:13:18;;;;;;;4.47;2.63;;;27.00;63.60;;;;;;5037565;28;20485;-72
2023/08/17 09:15:44;;;;;;;3.60;2.40;;;27.00;63.60;;;;;;5055023;28;20159;-72
2023/08/17 09:18:10;;;;;;;2.27;2.07;;;27.00;63.60;;;;;;5055081;28;20171;-72
2023/08/17 09:20:41;;;;;;;2.40;2.20;;;27.00;63.70;;;;;;5055388;28;20265;-71
2023/08/17 09:23:13;;;;;;;2.83;2.50;;;27.00;63.60;;;;;;5037423;28;20934;-72
2023/08/17 09:25:40;;;;;;;2.30;2.10;;;27.00;63.70;;;;;;5055658;28;20405;-73
2023/08/17 09:28:10;;;;;;;2.67;2.47;;;27.00;63.70;;;;;;5054754;28;20500;-72
2023/08/17 09:31:00;;;;;;;2.50;2.03;;;27.00;63.70;;;;;;5055032;28;20449;-73
2023/08/17 09:33:28;;;;;;;3.00;2.40;;;27.00;63.70;;;;;;5053829;28;20397;-72
2023/08/17 09:35:55;;;;;;;3.50;2.53;;;27.00;63.70;;;;;;5054861;28;20409;-72
2023/08/17 09:38:21;;;;;;;2.30;2.10;;;27.00;63.70;;;;;;5054553;28;20413;-72
2023/08/17 09:40:47;;;;;;;2.27;2.03;;;27.00;63.70;;;;;;5054173;28;20426;-71
2023/08/17 09:43:15;;;;;;;2.63;2.43;;;27.00;63.70;;;;;;5054221;28;20174;-72
2023/08/17 09:45:44;;;;;;;2.63;2.40;;;27.00;63.70;;;;;;5054354;28;20918;-72
2023/08/17 09:48:10;;;;;;;2.43;2.23;;;27.00;63.70;;;;;;5054298;28;20764;-73
2023/08/17 09:50:35;;;;;;;3.30;2.30;;;27.00;63.70;;;;;;5053999;28;20479;-72
2023/08/17 09:53:04;;;;;;;2.47;2.00;;;27.00;63.70;;;;;;5053667;28;20187;-72
2023/08/17 09:55:33;;;;;;;3.00;2.20;;;27.00;63.70;;;;;;5053771;28;20186;-73
2023/08/17 09:58:00;;;;;;;2.43;2.23;;;27.00;63.70;;;;;;5035761;28;20413;-72
2023/08/17 10:00:27;;;;;;;2.33;2.10;;;27.00;63.90;;;;;;5053779;28;20485;-73
2023/08/17 10:02:53;;;;;;;2.57;2.37;;;27.00;63.70;;;;;;5053677;28;20907;-74
2023/08/17 10:05:20;;;;;;;3.60;2.57;;;27.00;63.70;;;;;;5053617;28;20417;-72
2023/08/17 10:07:58;;;;;;;5.00;2.20;;;27.00;63.70;;;;;;5053750;28;20669;-73
2023/08/17 10:10:27;;;;;;;3.70;3.17;;;27.00;63.80;;;;;;5054567;28;20440;-73
2023/08/17 10:13:09;;;;;;;2.50;2.30;;;27.00;63.80;;;;;;5053648;28;20902;-73
2023/08/17 10:15:47;;;;;;;2.60;2.40;;;27.00;63.70;;;;;;5053595;28;20456;-73
2023/08/17 10:18:21;;;;;;;2.80;2.60;;;27.00;63.70;;;;;;5035589;28;20419;-72
2023/08/17 10:21:01;;;;;;;2.33;2.13;;;27.00;63.70;;;;;;5053444;28;20934;-73
2023/08/17 10:23:27;;;;;;;2.17;1.97;;;27.00;63.70;;;;;;5053396;28;20763;-72
2023/08/17 10:25:53;;;;;;;2.70;2.43;;;27.00;63.70;;;;;;5035410;28;20429;-73
2023/08/17 10:28:21;;;;;;;2.70;2.20;;;27.00;63.70;;;;;;5052856;28;20775;-72
2023/08/17 10:30:48;;;;;;;2.60;2.40;;;27.00;63.70;;;;;;5035043;28;21032;-73
2023/08/17 10:33:15;;;;;;;2.30;2.10;;;27.00;63.70;;;;;;5053873;28;20397;-72
2023/08/17 10:35:42;;;;;;;2.70;2.37;;;27.00;63.70;;;;;;5035951;28;20464;-73
2023/08/17 10:38:08;;;;;;;2.17;1.97;;;27.10;63.80;;;;;;5053872;28;20508;-72
2023/08/17 10:40:39;;;;;;;2.90;2.67;;;27.10;63.80;;;;;;5053830;28;20434;-72
2023/08/17 10:43:05;;;;;;;2.37;2.17;;;27.00;63.80;;;;;;5053839;28;20459;-73
2023/08/17 10:45:34;;;;;;;2.63;2.33;;;27.10;63.80;;;;;;5052398;28;20409;-73
2023/08/17 10:48:08;;;;;;;2.63;2.43;;;27.10;63.80;;;;;;5052942;28;20171;-72
2023/08/17 10:50:38;;;;;;;2.33;2.13;;;27.10;63.80;;;;;;5052622;28;20436;-72
2023/08/17 10:53:11;;;;;;;2.27;2.07;;;27.00;63.70;;;;;;5052730;28;20512;-72
2023/08/17 10:55:39;;;;;;;2.60;2.40;;;27.10;63.70;;;;;;5052625;28;20457;-73
2023/08/17 10:58:05;;;;;;;2.57;2.37;;;27.10;63.70;;;;;;5052482;28;20406;-73
2023/08/17 11:00:38;;;;;;;3.10;2.33;;;27.10;63.70;;;;;;5051577;28;20965;-72
2023/08/17 11:03:09;;;;;;;2.60;2.40;;;27.10;63.70;;;;;;5050048;28;20249;-73
2023/08/17 11:05:53;;;;;;;2.33;2.13;;;27.00;63.60;;;;;;5052705;28;20393;-72
2023/08/17 11:08:39;;;;;;;2.40;2.20;;;27.10;63.70;;;;;;5052722;28;20418;-72
2023/08/17 11:11:06;;;;;;;2.40;2.20;;;27.10;63.80;;;;;;5052434;28;20429;-73
2023/08/17 11:13:34;;;;;;;5.83;2.77;;;27.10;63.70;;;;;;5052241;28;20445;-73
2023/08/17 11:16:01;;;;;;;2.67;2.47;;;27.10;63.70;;;;;;5052627;28;20501;-73
2023/08/17 11:18:27;;;;;;;2.40;2.20;;;27.00;63.60;;;;;;5034406;28;20495;-73
2023/08/17 11:20:54;;;;;;;2.57;2.37;;;27.10;64.50;;;;;;5052777;28;20464;-71
2023/08/17 11:23:20;;;;;;;2.97;2.50;;;27.10;63.70;;;;;;5034730;28;20175;-73
2023/08/17 11:25:46;;;;;;;2.70;2.50;;;27.10;63.70;;;;;;5052396;28;20409;-73
2023/08/17 11:28:14;;;;;;;2.83;2.53;;;27.10;63.70;;;;;;5052317;28;20499;-73
2023/08/17 11:30:40;;;;;;;3.67;2.30;;;27.10;63.70;;;;;;5052169;28;20945;-72
2023/08/17 11:33:06;;;;;;;2.60;2.40;;;27.10;63.70;;;;;;5052116;28;20778;-73
2023/08/17 11:35:32;;;;;;;3.10;2.80;;;27.10;63.70;;;;;;5052063;28;20479;-73
2023/08/17 11:37:58;;;;;;;2.60;2.37;;;27.10;63.70;;;;;;5052367;28;20417;-72
2023/08/17 11:40:25;;;;;;;2.50;2.30;;;27.10;63.70;;;;;;5052091;28;20194;-72
2023/08/17 11:42:51;;;;;;;3.60;2.40;;;27.10;63.70;;;;;;5052388;28;20171;-71
2023/08/17 11:45:18;;;;;;;2.33;2.13;;;27.10;63.70;;;;;;5052286;28;20505;-73
2023/08/17 11:47:43;;;;;;;2.73;2.53;;;27.10;63.70;;;;;;5051959;28;20795;-72
2023/08/17 11:50:12;;;;;;;3.00;2.23;;;27.10;63.70;;;;;;5033986;28;20433;-73
2023/08/17 11:52:38;;;;;;;2.87;2.53;;;27.10;63.70;;;;;;5052197;28;20171;-73
2023/08/17 11:55:06;;;;;;;2.43;2.23;;;27.10;63.70;;;;;;5051978;28;20479;-72
2023/08/17 11:57:35;;;;;;;2.43;2.23;;;27.10;63.70;;;;;;5040167;28;20413;-74
2023/08/17 12:00:03;;;;;;;2.80;2.50;;;27.10;63.70;;;;;;5058705;28;20448;-73
2023/08/17 12:02:30;;;;;;;2.93;2.63;;;27.10;63.70;;;;;;5058799;28;20441;-73
2023/08/17 12:04:56;;;;;;;2.70;2.50;;;27.10;63.70;;;;;;5058723;28;20463;-73
2023/08/17 12:07:24;;;;;;;2.50;2.27;;;27.10;63.60;;;;;;5058630;28;20822;-72
2023/08/17 12:09:50;;;;;;;2.53;2.33;;;27.10;63.70;;;;;;5058654;28;20801;-73
2023/08/17 12:12:22;;;;;;;2.90;2.70;;;27.10;63.60;;;;;;5059151;28;20925;-73
2023/08/17 12:14:48;;;;;;;2.57;2.37;;;27.10;63.70;;;;;;5040192;28;20623;-73
2023/08/17 12:17:16;;;;;;;2.63;2.43;;;27.10;63.60;;;;;;5058434;28;20413;-73
2023/08/17 12:19:42;;;;;;;2.50;2.30;;;27.10;63.60;;;;;;5059421;28;20775;-72
2023/08/17 12:22:08;;;;;;;2.67;2.47;;;27.10;63.60;;;;;;5058468;28;20492;-73
2023/08/17 12:24:35;;;;;;;3.00;2.70;;;27.10;63.60;;;;;;5059188;28;20436;-73
2023/08/17 12:27:03;;;;;;;1.93;1.83;;;27.10;63.70;;;;;;5058616;28;20170;-73
2023/08/17 12:29:29;;;;;;;2.80;2.30;;;27.10;63.60;;;;;;5058866;28;20966;-73
2023/08/17 12:31:57;;;;;;;3.07;2.57;;;27.10;63.70;;;;;;5040877;28;20529;-73
2023/08/17 12:34:23;;;;;;;2.30;2.10;;;27.10;63.70;;;;;;5058372;28;20195;-73
2023/08/17 12:36:49;;;;;;;2.40;2.20;;;27.10;63.60;;;;;;5058421;28;20428;-71
2023/08/17 12:39:15;;;;;;;2.53;2.33;;;27.10;63.70;;;;;;5058205;28;20224;-73
2023/08/17 12:41:41;;;;;;;2.83;2.63;;;27.10;63.70;;;;;;5058475;28;20420;-73
2023/08/17 12:44:09;;;;;;;2.70;2.50;;;27.10;63.70;;;;;;5058271;28;20413;-73
2023/08/17 12:46:34;;;;;;;3.00;2.30;;;27.10;63.60;;;;;;5058140;28;20175;-73